Time,TemperatureF,DewpointF,PressureIn,WindDirection,WindDirectionDegrees,WindSpeedMPH,WindSpeedGustMPH,Humidity,HourlyPrecipIn,Conditions,Clouds,dailyrainin,SoftwareType,DateUTC
2013-12-20 00:00:00,43.9,16.6,29.97,WNW,299,0.0,2.0,33,0.00,,,0.00,Wunderground v.1.15,2013-12-20 08:00:00,
2013-12-20 00:05:00,43.6,16.3,29.96,WNW,299,0.0,2.0,33,0.00,,,0.00,Wunderground v.1.15,2013-12-20 08:05:00,
2013-12-20 00:10:00,43.4,16.9,29.96,WNW,299,0.0,1.0,34,0.00,,,0.00,Wunderground v.1.15,2013-12-20 08:10:00,
2013-12-20 00:20:00,43.1,16.6,29.96,WNW,299,0.0,1.0,34,0.00,,,0.00,Wunderground v.1.15,2013-12-20 08:20:00,
2013-12-20 00:25:00,43.1,16.6,29.96,WNW,299,0.0,1.0,34,0.00,,,0.00,Wunderground v.1.15,2013-12-20 08:25:00,
2013-12-20 00:30:00,43.0,15.8,29.96,WNW,299,0.0,0.0,33,0.00,,,0.00,Wunderground v.1.15,2013-12-20 08:30:00,
2013-12-20 00:35:00,43.1,15.2,29.97,WNW,299,0.0,1.0,32,0.00,,,0.00,Wunderground v.1.15,2013-12-20 08:35:00,
2013-12-20 00:45:00,43.6,14.9,29.96,WNW,295,0.0,2.0,31,0.00,,,0.00,Wunderground v.1.15,2013-12-20 08:45:00,
2013-12-20 00:50:00,43.8,15.1,29.96,WNW,294,0.0,1.0,31,0.00,,,0.00,Wunderground v.1.15,2013-12-20 08:50:00,
2013-12-20 00:55:00,43.7,15.0,29.96,WNW,294,0.0,2.0,31,0.00,,,0.00,Wunderground v.1.15,2013-12-20 08:55:00,
2013-12-20 01:05:00,43.9,14.4,29.96,WNW,294,0.0,1.0,30,0.00,,,0.00,Wunderground v.1.15,2013-12-20 09:05:00,
2013-12-20 01:10:00,43.7,14.2,29.97,WNW,294,0.0,1.0,30,0.00,,,0.00,Wunderground v.1.15,2013-12-20 09:10:00,
2013-12-20 01:15:00,43.6,14.9,29.97,WNW,294,0.0,2.0,31,0.00,,,0.00,Wunderground v.1.15,2013-12-20 09:15:00,
2013-12-20 01:20:00,43.4,14.7,29.96,WNW,294,0.0,1.0,31,0.00,,,0.00,Wunderground v.1.15,2013-12-20 09:20:00,
2013-12-20 01:30:00,43.1,13.7,29.96,NW,304,0.0,2.0,30,0.00,,,0.00,Wunderground v.1.15,2013-12-20 09:30:00,
2013-12-20 01:35:00,43.2,13.8,29.96,NW,304,1.0,3.0,30,0.00,,,0.00,Wunderground v.1.15,2013-12-20 09:35:00,
2013-12-20 01:45:00,43.0,14.4,29.96,NW,304,0.0,2.0,31,0.00,,,0.00,Wunderground v.1.15,2013-12-20 09:45:00,
2013-12-20 01:50:00,42.9,14.3,29.96,NW,304,0.0,1.0,31,0.00,,,0.00,Wunderground v.1.15,2013-12-20 09:50:00,
2013-12-20 01:55:00,42.8,14.2,29.96,NW,304,0.0,1.0,31,0.00,,,0.00,Wunderground v.1.15,2013-12-20 09:55:00,
2013-12-20 02:00:00,42.7,14.1,29.96,NW,304,0.0,1.0,31,0.00,,,0.00,Wunderground v.1.15,2013-12-20 10:00:00,
2013-12-20 02:05:00,42.8,14.2,29.96,NW,304,0.0,1.0,31,0.00,,,0.00,Wunderground v.1.15,2013-12-20 10:05:00,
2013-12-20 02:15:00,42.9,14.3,29.96,NW,304,0.0,1.0,31,0.00,,,0.00,Wunderground v.1.15,2013-12-20 10:15:00,
2013-12-20 02:20:00,42.6,14.8,29.96,NW,304,0.0,1.0,32,0.00,,,0.00,Wunderground v.1.15,2013-12-20 10:20:00,
2013-12-20 02:25:00,42.4,13.9,29.97,NW,304,0.0,1.0,31,0.00,,,0.00,Wunderground v.1.15,2013-12-20 10:25:00,
2013-12-20 02:30:00,42.3,14.5,29.97,NW,304,0.0,1.0,32,0.00,,,0.00,Wunderground v.1.15,2013-12-20 10:30:00,
2013-12-20 02:40:00,42.2,13.7,29.97,NW,304,0.0,1.0,31,0.00,,,0.00,Wunderground v.1.15,2013-12-20 10:40:00,
2013-12-20 02:45:00,42.2,14.4,29.97,NW,304,0.0,2.0,32,0.00,,,0.00,Wunderground v.1.15,2013-12-20 10:45:00,
2013-12-20 02:50:00,42.1,15.0,29.97,NW,304,0.0,1.0,33,0.00,,,0.00,Wunderground v.1.15,2013-12-20 10:50:00,
2013-12-20 03:00:00,42.2,13.7,29.97,NW,304,0.0,2.0,31,0.00,,,0.00,Wunderground v.1.15,2013-12-20 11:00:00,
2013-12-20 03:05:00,42.3,13.8,29.97,NW,304,0.0,2.0,31,0.00,,,0.00,Wunderground v.1.15,2013-12-20 11:05:00,
2013-12-20 03:10:00,42.2,13.7,29.97,NW,304,0.0,1.0,31,0.00,,,0.00,Wunderground v.1.15,2013-12-20 11:10:00,
2013-12-20 03:15:00,42.2,13.7,29.97,NW,304,0.0,2.0,31,0.00,,,0.00,Wunderground v.1.15,2013-12-20 11:15:00,
2013-12-20 03:20:00,42.2,13.7,29.97,NW,304,0.0,2.0,31,0.00,,,0.00,Wunderground v.1.15,2013-12-20 11:20:00,
2013-12-20 03:30:00,42.0,14.2,29.97,NW,304,0.0,1.0,32,0.00,,,0.00,Wunderground v.1.15,2013-12-20 11:30:00,
2013-12-20 03:35:00,41.9,14.1,29.97,NW,304,0.0,1.0,32,0.00,,,0.00,Wunderground v.1.15,2013-12-20 11:35:00,
2013-12-20 03:45:00,41.9,13.4,29.97,NW,304,0.0,1.0,31,0.00,,,0.00,Wunderground v.1.15,2013-12-20 11:45:00,
2013-12-20 03:50:00,41.8,13.3,29.97,NW,304,0.0,2.0,31,0.00,,,0.00,Wunderground v.1.15,2013-12-20 11:50:00,
2013-12-20 03:55:00,41.9,12.7,29.97,NW,304,0.0,2.0,30,0.00,,,0.00,Wunderground v.1.15,2013-12-20 11:55:00,
2013-12-20 04:00:00,42.1,12.1,29.97,NW,304,0.0,1.0,29,0.00,,,0.00,Wunderground v.1.15,2013-12-20 12:00:00,
2013-12-20 04:05:00,42.2,12.2,29.97,NW,304,0.0,3.0,29,0.00,,,0.00,Wunderground v.1.15,2013-12-20 12:05:00,
2013-12-20 04:15:00,43.0,12.1,29.97,NW,304,0.0,4.0,28,0.00,,,0.00,Wunderground v.1.15,2013-12-20 12:15:00,
2013-12-20 04:20:00,42.9,12.8,29.98,NW,304,0.0,1.0,29,0.00,,,0.00,Wunderground v.1.15,2013-12-20 12:20:00,
2013-12-20 04:25:00,42.6,12.5,29.98,NW,304,0.0,1.0,29,0.00,,,0.00,Wunderground v.1.15,2013-12-20 12:25:00,
2013-12-20 04:30:00,42.3,12.3,29.97,NW,304,0.0,0.0,29,0.00,,,0.00,Wunderground v.1.15,2013-12-20 12:30:00,
2013-12-20 04:35:00,42.1,12.8,29.98,NW,304,0.0,2.0,30,0.00,,,0.00,Wunderground v.1.15,2013-12-20 12:35:00,
2013-12-20 04:40:00,42.1,11.3,29.98,NW,304,0.0,1.0,28,0.00,,,0.00,Wunderground v.1.15,2013-12-20 12:40:00,
2013-12-20 04:50:00,42.5,11.6,29.97,NW,304,0.0,0.0,28,0.00,,,0.00,Wunderground v.1.15,2013-12-20 12:50:00,
2013-12-20 04:55:00,42.4,11.5,29.97,NW,304,0.0,1.0,28,0.00,,,0.00,Wunderground v.1.15,2013-12-20 12:55:00,
2013-12-20 05:00:00,42.4,10.7,29.98,NW,304,0.0,2.0,27,0.00,,,0.00,Wunderground v.1.15,2013-12-20 13:00:00,
2013-12-20 05:10:00,42.3,11.5,29.98,NW,304,0.0,1.0,28,0.00,,,0.00,Wunderground v.1.15,2013-12-20 13:10:00,
2013-12-20 05:15:00,41.9,11.9,29.98,NW,304,0.0,1.0,29,0.00,,,0.00,Wunderground v.1.15,2013-12-20 13:15:00,
2013-12-20 05:25:00,41.7,10.9,29.98,NW,304,0.0,1.0,28,0.00,,,0.00,Wunderground v.1.15,2013-12-20 13:25:00,
2013-12-20 05:30:00,41.8,11.0,29.98,NW,304,0.0,2.0,28,0.00,,,0.00,Wunderground v.1.15,2013-12-20 13:30:00,
2013-12-20 05:35:00,41.7,11.7,29.97,NW,304,0.0,2.0,29,0.00,,,0.00,Wunderground v.1.15,2013-12-20 13:35:00,
2013-12-20 05:40:00,41.5,12.3,29.97,NW,304,0.0,0.0,30,0.00,,,0.00,Wunderground v.1.15,2013-12-20 13:40:00,
2013-12-20 05:50:00,41.0,11.1,29.97,NW,304,0.0,1.0,29,0.00,,,0.00,Wunderground v.1.15,2013-12-20 13:50:00,
2013-12-20 06:00:00,41.1,9.6,29.98,NW,304,0.0,1.0,27,0.00,,,0.00,Wunderground v.1.15,2013-12-20 14:00:00,
2013-12-20 06:05:00,42.1,9.6,29.99,NW,304,0.0,2.0,26,0.00,,,0.00,Wunderground v.1.15,2013-12-20 14:05:00,
2013-12-20 06:10:00,42.8,8.4,29.99,NW,308,1.0,2.0,24,0.00,,,0.00,Wunderground v.1.15,2013-12-20 14:10:00,
2013-12-20 06:20:00,43.6,10.0,29.99,NW,308,1.0,2.0,25,0.00,,,0.00,Wunderground v.1.15,2013-12-20 14:20:00,
2013-12-20 06:25:00,43.4,11.6,29.98,NW,308,1.0,3.0,27,0.00,,,0.00,Wunderground v.1.15,2013-12-20 14:25:00,
2013-12-20 06:30:00,42.7,13.4,29.98,NW,308,0.0,1.0,30,0.00,,,0.00,Wunderground v.1.15,2013-12-20 14:30:00,
2013-12-20 06:40:00,41.1,15.5,29.98,NW,308,0.0,1.0,35,0.00,,,0.00,Wunderground v.1.15,2013-12-20 14:40:00,
2013-12-20 06:50:00,39.9,14.4,29.98,NW,308,0.0,0.0,35,0.00,,,0.00,Wunderground v.1.15,2013-12-20 14:50:00,
2013-12-20 06:55:00,40.0,13.8,29.98,NW,308,0.0,0.0,34,0.00,,,0.00,Wunderground v.1.15,2013-12-20 14:55:00,
2013-12-20 07:00:00,40.2,13.3,29.99,NW,308,0.0,1.0,33,0.00,,,0.00,Wunderground v.1.15,2013-12-20 15:00:00,
2013-12-20 07:05:00,40.7,11.6,29.99,NW,308,0.0,1.0,30,0.00,,,0.00,Wunderground v.1.15,2013-12-20 15:05:00,
2013-12-20 07:10:00,41.3,10.6,29.99,NW,308,0.0,1.0,28,0.00,,,0.00,Wunderground v.1.15,2013-12-20 15:10:00,
2013-12-20 07:20:00,41.2,13.5,30.00,NW,308,0.0,1.0,32,0.00,,,0.00,Wunderground v.1.15,2013-12-20 15:20:00,
2013-12-20 07:25:00,41.1,13.4,30.00,NW,308,0.0,1.0,32,0.00,,,0.00,Wunderground v.1.15,2013-12-20 15:25:00,
2013-12-20 07:30:00,40.9,13.3,30.00,NW,308,0.0,0.0,32,0.00,,,0.00,Wunderground v.1.15,2013-12-20 15:30:00,
2013-12-20 07:35:00,40.5,15.6,30.00,NW,308,0.0,0.0,36,0.00,,,0.00,Wunderground v.1.15,2013-12-20 15:35:00,
2013-12-20 07:45:00,40.1,15.2,30.00,NW,308,0.0,1.0,36,0.00,,,0.00,Wunderground v.1.15,2013-12-20 15:45:00,
2013-12-20 07:50:00,40.3,16.7,30.00,NW,308,0.0,0.0,38,0.00,,,0.00,Wunderground v.1.15,2013-12-20 15:50:00,
2013-12-20 07:55:00,40.5,16.2,30.00,NW,308,0.0,1.0,37,0.00,,,0.00,Wunderground v.1.15,2013-12-20 15:55:00,
2013-12-20 08:00:00,40.8,15.9,30.00,NW,308,0.0,0.0,36,0.00,,,0.00,Wunderground v.1.15,2013-12-20 16:00:00,
2013-12-20 08:10:00,41.7,16.7,30.00,NW,308,0.0,0.0,36,0.00,,,0.00,Wunderground v.1.15,2013-12-20 16:10:00,
2013-12-20 08:15:00,42.0,17.6,30.00,NW,308,0.0,0.0,37,0.00,,,0.00,Wunderground v.1.15,2013-12-20 16:15:00,
2013-12-20 08:20:00,42.3,17.8,30.01,NW,308,0.0,0.0,37,0.00,,,0.00,Wunderground v.1.15,2013-12-20 16:20:00,
2013-12-20 08:25:00,42.7,16.2,30.01,NW,307,0.0,1.0,34,0.00,,,0.00,Wunderground v.1.15,2013-12-20 16:25:00,
2013-12-20 08:30:00,43.3,16.8,30.01,NW,307,0.0,1.0,34,0.00,,,0.00,Wunderground v.1.15,2013-12-20 16:30:00,
2013-12-20 08:40:00,44.2,17.6,30.02,NW,307,0.0,0.0,34,0.00,,,0.00,Wunderground v.1.15,2013-12-20 16:40:00,
2013-12-20 08:50:00,45.2,19.1,30.02,NW,307,0.0,1.0,35,0.00,,,0.00,Wunderground v.1.15,2013-12-20 16:50:00,
2013-12-20 08:55:00,45.5,20.1,30.02,NW,307,0.0,1.0,36,0.00,,,0.00,Wunderground v.1.15,2013-12-20 16:55:00,
2013-12-20 09:00:00,45.9,20.4,30.02,NW,307,0.0,1.0,36,0.00,,,0.00,Wunderground v.1.15,2013-12-20 17:00:00,
2013-12-20 09:05:00,46.3,20.8,30.02,NW,307,0.0,1.0,36,0.00,,,0.00,Wunderground v.1.15,2013-12-20 17:05:00,
2013-12-20 09:10:00,46.5,20.9,30.02,NW,307,0.0,1.0,36,0.00,,,0.00,Wunderground v.1.15,2013-12-20 17:10:00,
2013-12-20 09:15:00,46.9,21.3,30.01,NW,307,0.0,1.0,36,0.00,,,0.00,Wunderground v.1.15,2013-12-20 17:15:00,
2013-12-20 09:20:00,47.4,21.7,30.02,NW,307,0.0,0.0,36,0.00,,,0.00,Wunderground v.1.15,2013-12-20 17:20:00,
2013-12-20 09:30:00,49.0,22.5,30.02,NW,307,0.0,1.0,35,0.00,,,0.00,Wunderground v.1.15,2013-12-20 17:30:00,
2013-12-20 09:35:00,49.9,21.9,30.02,South,190,0.0,2.0,33,0.00,,,0.00,Wunderground v.1.15,2013-12-20 17:35:00,
2013-12-20 09:40:00,50.3,22.3,30.03,South,190,0.0,2.0,33,0.00,,,0.00,Wunderground v.1.15,2013-12-20 17:40:00,
2013-12-20 09:45:00,51.2,22.3,30.03,South,189,0.0,2.0,32,0.00,,,0.00,Wunderground v.1.15,2013-12-20 17:45:00,
2013-12-20 09:50:00,51.8,22.8,30.03,South,185,0.0,2.0,32,0.00,,,0.00,Wunderground v.1.15,2013-12-20 17:50:00,
2013-12-20 09:55:00,51.9,22.2,30.03,South,182,1.0,3.0,31,0.00,,,0.00,Wunderground v.1.15,2013-12-20 17:55:00,
2013-12-20 10:00:00,51.9,22.2,30.03,South,182,1.0,1.0,31,0.00,,,0.00,Wunderground v.1.15,2013-12-20 18:00:00,
2013-12-20 10:10:00,52.1,20.8,30.03,SSE,162,0.0,4.0,29,0.00,,,0.00,Wunderground v.1.15,2013-12-20 18:10:00,
2013-12-20 10:15:00,52.4,21.0,30.03,SSE,161,0.0,4.0,29,0.00,,,0.00,Wunderground v.1.15,2013-12-20 18:15:00,
2013-12-20 10:20:00,52.6,19.5,30.03,SSE,167,1.0,1.0,27,0.00,,,0.00,Wunderground v.1.15,2013-12-20 18:20:00,
2013-12-20 10:25:00,52.4,19.3,30.03,SSE,157,1.0,5.0,27,0.00,,,0.00,Wunderground v.1.15,2013-12-20 18:25:00,
2013-12-20 10:35:00,52.8,17.9,30.04,SSE,160,1.0,4.0,25,0.00,,,0.00,Wunderground v.1.15,2013-12-20 18:35:00,
2013-12-20 10:40:00,53.0,18.1,30.04,SSE,160,1.0,2.0,25,0.00,,,0.00,Wunderground v.1.15,2013-12-20 18:40:00,
2013-12-20 10:45:00,53.1,18.2,30.03,SSE,157,1.0,4.0,25,0.00,,,0.00,Wunderground v.1.15,2013-12-20 18:45:00,
2013-12-20 10:50:00,53.1,19.1,30.03,SSE,157,1.0,4.0,26,0.00,,,0.00,Wunderground v.1.15,2013-12-20 18:50:00,
2013-12-20 11:00:00,53.8,18.7,30.02,SSE,155,1.0,1.0,25,0.00,,,0.00,Wunderground v.1.15,2013-12-20 19:00:00,
2013-12-20 11:05:00,54.3,15.1,30.02,SSE,164,0.0,2.0,21,0.00,,,0.00,Wunderground v.1.15,2013-12-20 19:05:00,
2013-12-20 11:10:00,55.0,19.8,30.02,South,170,0.0,3.0,25,0.00,,,0.00,Wunderground v.1.15,2013-12-20 19:10:00,
2013-12-20 11:15:00,55.3,17.0,30.02,WNW,289,1.0,5.0,22,0.00,,,0.00,Wunderground v.1.15,2013-12-20 19:15:00,
2013-12-20 11:20:00,54.7,16.5,30.01,West,273,2.0,7.0,22,0.00,,,0.00,Wunderground v.1.15,2013-12-20 19:20:00,
2013-12-20 11:25:00,54.6,16.5,30.01,South,171,2.0,9.0,22,0.00,,,0.00,Wunderground v.1.15,2013-12-20 19:25:00,
2013-12-20 11:30:00,54.8,17.7,30.01,SW,224,2.0,2.0,23,0.00,,,0.00,Wunderground v.1.15,2013-12-20 19:30:00,
2013-12-20 11:35:00,55.2,17.0,30.01,WNW,283,1.0,5.0,22,0.00,,,0.00,Wunderground v.1.15,2013-12-20 19:35:00,
2013-12-20 11:40:00,55.7,16.3,30.00,WNW,288,0.0,2.0,21,0.00,,,0.00,Wunderground v.1.15,2013-12-20 19:40:00,
2013-12-20 11:50:00,56.2,16.7,30.00,WNW,294,1.0,1.0,21,0.00,,,0.00,Wunderground v.1.15,2013-12-20 19:50:00,
2013-12-20 11:55:00,56.6,18.1,30.00,WNW,298,1.0,6.0,22,0.00,,,0.00,Wunderground v.1.15,2013-12-20 19:55:00,
2013-12-20 12:00:00,57.3,17.6,30.00,WSW,251,0.0,4.0,21,0.00,,,0.00,Wunderground v.1.15,2013-12-20 20:00:00,
2013-12-20 12:05:00,58.1,16.0,30.00,West,260,0.0,4.0,19,0.00,,,0.00,Wunderground v.1.15,2013-12-20 20:05:00,
2013-12-20 12:10:00,58.2,17.3,30.00,West,259,1.0,5.0,20,0.00,,,0.00,Wunderground v.1.15,2013-12-20 20:10:00,
2013-12-20 12:20:00,57.9,17.0,29.99,West,279,1.0,4.0,20,0.00,,,0.00,Wunderground v.1.15,2013-12-20 20:20:00,
2013-12-20 12:25:00,57.8,15.7,29.99,West,275,1.0,5.0,19,0.00,,,0.00,Wunderground v.1.15,2013-12-20 20:25:00,
2013-12-20 12:30:00,57.8,15.7,29.99,NW,317,1.0,6.0,19,0.00,,,0.00,Wunderground v.1.15,2013-12-20 20:30:00,
2013-12-20 12:35:00,58.1,14.8,29.99,NW,307,1.0,6.0,18,0.00,,,0.00,Wunderground v.1.15,2013-12-20 20:35:00,
2013-12-20 12:45:00,58.7,16.5,29.99,SSW,213,1.0,4.0,19,0.00,,,0.00,Wunderground v.1.15,2013-12-20 20:45:00,
2013-12-20 12:50:00,58.4,16.2,29.99,West,259,1.0,1.0,19,0.00,,,0.00,Wunderground v.1.15,2013-12-20 20:50:00,
2013-12-20 12:55:00,58.3,14.9,29.99,West,264,2.0,2.0,18,0.00,,,0.00,Wunderground v.1.15,2013-12-20 20:55:00,
2013-12-20 13:00:00,58.0,17.1,29.99,West,259,2.0,2.0,20,0.00,,,0.00,Wunderground v.1.15,2013-12-20 21:00:00,
2013-12-20 13:05:00,58.9,16.7,29.99,NW,309,1.0,3.0,19,0.00,,,0.00,Wunderground v.1.15,2013-12-20 21:05:00,
2013-12-20 13:10:00,58.9,16.7,30.00,NNW,336,1.0,8.0,19,0.00,,,0.00,Wunderground v.1.15,2013-12-20 21:10:00,
2013-12-20 13:15:00,59.0,16.7,29.99,NW,319,2.0,8.0,19,0.00,,,0.00,Wunderground v.1.15,2013-12-20 21:15:00,
2013-12-20 13:25:00,58.9,14.1,29.99,North,5,2.0,6.0,17,0.00,,,0.00,Wunderground v.1.15,2013-12-20 21:25:00,
2013-12-20 13:30:00,59.3,14.4,29.99,SE,132,1.0,1.0,17,0.00,,,0.00,Wunderground v.1.15,2013-12-20 21:30:00,
2013-12-20 13:35:00,59.6,13.3,29.99,SE,128,1.0,3.0,16,0.00,,,0.00,Wunderground v.1.15,2013-12-20 21:35:00,
2013-12-20 13:40:00,59.8,13.4,29.99,SE,145,0.0,3.0,16,0.00,,,0.00,Wunderground v.1.15,2013-12-20 21:40:00,
2013-12-20 13:50:00,60.4,13.9,29.99,SE,139,0.0,4.0,16,0.00,,,0.00,Wunderground v.1.15,2013-12-20 21:50:00,
2013-12-20 14:00:00,60.2,16.5,29.98,WNW,299,1.0,1.0,18,0.00,,,0.00,Wunderground v.1.15,2013-12-20 22:00:00,
2013-12-20 14:05:00,60.6,15.5,29.98,WNW,296,1.0,2.0,17,0.00,,,0.00,Wunderground v.1.15,2013-12-20 22:05:00,
2013-12-20 14:10:00,60.3,13.9,29.98,WNW,289,1.0,1.0,16,0.00,,,0.00,Wunderground v.1.15,2013-12-20 22:10:00,
2013-12-20 14:15:00,60.2,15.2,29.98,SW,218,1.0,6.0,17,0.00,,,0.00,Wunderground v.1.15,2013-12-20 22:15:00,
2013-12-20 14:20:00,60.5,14.0,29.98,SW,218,0.0,2.0,16,0.00,,,0.00,Wunderground v.1.15,2013-12-20 22:20:00,
2013-12-20 14:30:00,61.1,11.5,29.98,ESE,105,1.0,2.0,14,0.00,,,0.00,Wunderground v.1.15,2013-12-20 22:30:00,
2013-12-20 14:35:00,60.8,12.8,29.98,WNW,292,1.0,6.0,15,0.00,,,0.00,Wunderground v.1.15,2013-12-20 22:35:00,
2013-12-20 14:40:00,60.5,11.0,29.98,WNW,286,2.0,6.0,14,0.00,,,0.00,Wunderground v.1.15,2013-12-20 22:40:00,
2013-12-20 14:45:00,60.1,12.2,29.99,WNW,292,2.0,6.0,15,0.00,,,0.00,Wunderground v.1.15,2013-12-20 22:45:00,
2013-12-20 14:55:00,59.9,14.9,29.99,SSE,155,1.0,4.0,17,0.00,,,0.00,Wunderground v.1.15,2013-12-20 22:55:00,
2013-12-20 15:05:00,59.7,17.3,29.99,SSE,159,0.0,3.0,19,0.00,,,0.00,Wunderground v.1.15,2013-12-20 23:05:00,
2013-12-20 15:15:00,59.1,16.8,29.99,SSE,159,0.0,2.0,19,0.00,,,0.00,Wunderground v.1.15,2013-12-20 23:15:00,
2013-12-20 15:25:00,59.0,17.9,29.99,SE,142,0.0,3.0,20,0.00,,,0.00,Wunderground v.1.15,2013-12-20 23:25:00,
2013-12-20 15:30:00,58.9,17.8,30.00,SE,139,0.0,2.0,20,0.00,,,0.00,Wunderground v.1.15,2013-12-20 23:30:00,
2013-12-20 15:35:00,58.8,18.9,30.00,SE,139,0.0,2.0,21,0.00,,,0.00,Wunderground v.1.15,2013-12-20 23:35:00,
2013-12-20 15:40:00,58.7,17.7,30.00,SE,139,0.0,1.0,20,0.00,,,0.00,Wunderground v.1.15,2013-12-20 23:40:00,
2013-12-20 15:45:00,58.3,17.3,30.00,SE,139,0.0,1.0,20,0.00,,,0.00,Wunderground v.1.15,2013-12-20 23:45:00,
2013-12-20 15:55:00,57.8,18.1,30.00,SE,139,0.0,1.0,21,0.00,,,0.00,Wunderground v.1.15,2013-12-20 23:55:00,
2013-12-20 16:05:00,57.4,18.8,30.00,SE,139,0.0,0.0,22,0.00,,,0.00,Wunderground v.1.15,2013-12-21 00:05:00,
2013-12-20 16:10:00,57.3,18.7,30.00,SE,139,0.0,0.0,22,0.00,,,0.00,Wunderground v.1.15,2013-12-21 00:10:00,
2013-12-20 16:15:00,57.0,19.5,30.00,SE,139,0.0,0.0,23,0.00,,,0.00,Wunderground v.1.15,2013-12-21 00:15:00,
2013-12-20 16:25:00,56.5,20.1,29.99,SE,139,0.0,1.0,24,0.00,,,0.00,Wunderground v.1.15,2013-12-21 00:25:00,
2013-12-20 16:30:00,56.0,20.6,29.99,SE,139,0.0,1.0,25,0.00,,,0.00,Wunderground v.1.15,2013-12-21 00:30:00,
2013-12-20 16:35:00,55.6,21.2,29.99,SE,139,0.0,1.0,26,0.00,,,0.00,Wunderground v.1.15,2013-12-21 00:35:00,
2013-12-20 16:45:00,55.0,20.7,29.98,SE,139,0.0,1.0,26,0.00,,,0.00,Wunderground v.1.15,2013-12-21 00:45:00,
2013-12-20 16:50:00,54.6,21.2,29.98,SE,139,0.0,1.0,27,0.00,,,0.00,Wunderground v.1.15,2013-12-21 00:50:00,
2013-12-20 16:55:00,54.2,20.9,29.98,SE,139,0.0,3.0,27,0.00,,,0.00,Wunderground v.1.15,2013-12-21 00:55:00,
2013-12-20 17:05:00,54.1,21.7,29.98,SE,139,0.0,1.0,28,0.00,,,0.00,Wunderground v.1.15,2013-12-21 01:05:00,
2013-12-20 17:10:00,53.7,22.2,29.98,SE,139,0.0,1.0,29,0.00,,,0.00,Wunderground v.1.15,2013-12-21 01:10:00,
2013-12-20 17:15:00,53.3,22.6,29.98,SE,139,0.0,1.0,30,0.00,,,0.00,Wunderground v.1.15,2013-12-21 01:15:00,
2013-12-20 17:20:00,52.9,22.3,29.98,SE,139,0.0,0.0,30,0.00,,,0.00,Wunderground v.1.15,2013-12-21 01:20:00,
2013-12-20 17:25:00,52.4,22.6,29.98,SE,139,0.0,0.0,31,0.00,,,0.00,Wunderground v.1.15,2013-12-21 01:25:00,
2013-12-20 17:35:00,51.8,22.1,29.98,SE,139,0.0,1.0,31,0.00,,,0.00,Wunderground v.1.15,2013-12-21 01:35:00,
2013-12-20 17:40:00,51.6,22.7,29.98,SE,139,0.0,0.0,32,0.00,,,0.00,Wunderground v.1.15,2013-12-21 01:40:00,
2013-12-20 17:45:00,51.4,22.5,29.98,SE,139,0.0,0.0,32,0.00,,,0.00,Wunderground v.1.15,2013-12-21 01:45:00,
2013-12-20 17:55:00,51.0,22.1,29.98,SE,139,0.0,1.0,32,0.00,,,0.00,Wunderground v.1.15,2013-12-21 01:55:00,
2013-12-20 18:00:00,50.9,22.8,29.98,SE,139,0.0,0.0,33,0.00,,,0.00,Wunderground v.1.15,2013-12-21 02:00:00,
2013-12-20 18:05:00,50.6,22.5,29.98,SE,139,0.0,1.0,33,0.00,,,0.00,Wunderground v.1.15,2013-12-21 02:05:00,
2013-12-20 18:15:00,50.6,23.2,29.98,SE,139,0.0,1.0,34,0.00,,,0.00,Wunderground v.1.15,2013-12-21 02:15:00,
2013-12-20 18:20:00,50.8,22.7,29.99,SE,139,0.0,1.0,33,0.00,,,0.00,Wunderground v.1.15,2013-12-21 02:20:00,
2013-12-20 18:25:00,50.8,23.4,29.99,SE,139,0.0,2.0,34,0.00,,,0.00,Wunderground v.1.15,2013-12-21 02:25:00,
2013-12-20 18:30:00,50.6,23.9,29.99,SE,139,0.0,1.0,35,0.00,,,0.00,Wunderground v.1.15,2013-12-21 02:30:00,
2013-12-20 18:35:00,50.4,23.7,29.99,SE,139,0.0,1.0,35,0.00,,,0.00,Wunderground v.1.15,2013-12-21 02:35:00,
2013-12-20 18:45:00,50.2,24.9,29.99,SE,139,0.0,1.0,37,0.00,,,0.00,Wunderground v.1.15,2013-12-21 02:45:00,
2013-12-20 18:50:00,49.9,24.0,29.99,SE,139,0.0,1.0,36,0.00,,,0.00,Wunderground v.1.15,2013-12-21 02:50:00,
2013-12-20 18:55:00,49.9,24.6,29.99,SE,139,0.0,1.0,37,0.00,,,0.00,Wunderground v.1.15,2013-12-21 02:55:00,
2013-12-20 19:00:00,49.8,24.5,30.00,SE,139,0.0,1.0,37,0.00,,,0.00,Wunderground v.1.15,2013-12-21 03:00:00,
2013-12-20 19:10:00,49.9,24.6,30.00,SE,140,0.0,1.0,37,0.00,,,0.00,Wunderground v.1.15,2013-12-21 03:10:00,
2013-12-20 19:15:00,49.7,25.1,30.00,SE,142,0.0,2.0,38,0.00,,,0.00,Wunderground v.1.15,2013-12-21 03:15:00,
2013-12-20 19:25:00,49.5,24.3,30.00,SE,142,0.0,1.0,37,0.00,,,0.00,Wunderground v.1.15,2013-12-21 03:25:00,
2013-12-20 19:30:00,49.5,24.9,30.00,SE,143,0.0,1.0,38,0.00,,,0.00,Wunderground v.1.15,2013-12-21 03:30:00,
2013-12-20 19:35:00,49.1,25.8,30.00,SE,146,0.0,1.0,40,0.00,,,0.00,Wunderground v.1.15,2013-12-21 03:35:00,
2013-12-20 19:40:00,48.9,25.6,30.00,SSE,150,0.0,2.0,40,0.00,,,0.00,Wunderground v.1.15,2013-12-21 03:40:00,
2013-12-20 19:45:00,49.0,25.7,30.01,SSE,150,0.0,2.0,40,0.00,,,0.00,Wunderground v.1.15,2013-12-21 03:45:00,
2013-12-20 19:55:00,49.7,25.1,30.01,SSE,150,0.0,1.0,38,0.00,,,0.00,Wunderground v.1.15,2013-12-21 03:55:00,
2013-12-20 20:00:00,50.0,25.4,30.01,SSE,150,0.0,0.0,38,0.00,,,0.00,Wunderground v.1.15,2013-12-21 04:00:00,
2013-12-20 20:05:00,50.3,25.0,30.01,SSE,150,0.0,1.0,37,0.00,,,0.00,Wunderground v.1.15,2013-12-21 04:05:00,
2013-12-20 20:10:00,50.6,25.3,30.02,SSE,150,0.0,1.0,37,0.00,,,0.00,Wunderground v.1.15,2013-12-21 04:10:00,
2013-12-20 20:20:00,50.9,26.2,30.02,SSE,150,0.0,2.0,38,0.00,,,0.00,Wunderground v.1.15,2013-12-21 04:20:00,
2013-12-20 20:25:00,50.9,25.5,30.01,SSE,150,0.0,2.0,37,0.00,,,0.00,Wunderground v.1.15,2013-12-21 04:25:00,
2013-12-20 20:30:00,50.3,26.3,30.01,SSE,150,0.0,1.0,39,0.00,,,0.00,Wunderground v.1.15,2013-12-21 04:30:00,
2013-12-20 20:40:00,49.5,26.7,30.01,SSE,150,0.0,0.0,41,0.00,,,0.00,Wunderground v.1.15,2013-12-21 04:40:00,
2013-12-20 20:45:00,49.1,27.0,30.01,SSE,150,0.0,0.0,42,0.00,,,0.00,Wunderground v.1.15,2013-12-21 04:45:00,
2013-12-20 20:50:00,48.9,26.8,30.01,SSE,150,0.0,0.0,42,0.00,,,0.00,Wunderground v.1.15,2013-12-21 04:50:00,
2013-12-20 20:55:00,48.8,26.7,30.01,SSE,150,0.0,0.0,42,0.00,,,0.00,Wunderground v.1.15,2013-12-21 04:55:00,
2013-12-20 21:05:00,48.5,27.0,30.01,SSE,150,0.0,0.0,43,0.00,,,0.00,Wunderground v.1.15,2013-12-21 05:05:00,
2013-12-20 21:10:00,48.4,26.9,30.01,SSE,150,0.0,0.0,43,0.00,,,0.00,Wunderground v.1.15,2013-12-21 05:10:00,
2013-12-20 21:15:00,48.3,26.8,30.01,SSE,150,0.0,0.0,43,0.00,,,0.00,Wunderground v.1.15,2013-12-21 05:15:00,
2013-12-20 21:20:00,48.4,26.9,30.01,SSE,150,0.0,0.0,43,0.00,,,0.00,Wunderground v.1.15,2013-12-21 05:20:00,
2013-12-20 21:25:00,48.5,27.6,30.01,SSE,150,0.0,0.0,44,0.00,,,0.00,Wunderground v.1.15,2013-12-21 05:25:00,
2013-12-20 21:30:00,48.5,27.6,30.01,SSE,150,0.0,0.0,44,0.00,,,0.00,Wunderground v.1.15,2013-12-21 05:30:00,
2013-12-20 21:35:00,48.4,27.5,30.01,SSE,150,0.0,1.0,44,0.00,,,0.00,Wunderground v.1.15,2013-12-21 05:35:00,
2013-12-20 21:40:00,48.4,28.0,30.01,SSE,150,0.0,0.0,45,0.00,,,0.00,Wunderground v.1.15,2013-12-21 05:40:00,
2013-12-20 21:45:00,48.2,27.3,30.00,SSE,150,0.0,0.0,44,0.00,,,0.00,Wunderground v.1.15,2013-12-21 05:45:00,
2013-12-20 21:50:00,48.1,28.3,30.00,SSE,150,0.0,0.0,46,0.00,,,0.00,Wunderground v.1.15,2013-12-21 05:50:00,
2013-12-20 22:00:00,48.5,29.2,30.00,SSE,150,0.0,1.0,47,0.00,,,0.00,Wunderground v.1.15,2013-12-21 06:00:00,
2013-12-20 22:05:00,49.3,29.9,30.00,SSE,154,0.0,2.0,47,0.00,,,0.00,Wunderground v.1.15,2013-12-21 06:05:00,
2013-12-20 22:10:00,50.0,30.0,30.00,SSE,163,0.0,3.0,46,0.00,,,0.00,Wunderground v.1.15,2013-12-21 06:10:00,
2013-12-20 22:15:00,50.3,29.7,30.00,SSE,166,0.0,3.0,45,0.00,,,0.00,Wunderground v.1.15,2013-12-21 06:15:00,
2013-12-20 22:20:00,50.3,29.7,30.00,SSE,166,0.0,1.0,45,0.00,,,0.00,Wunderground v.1.15,2013-12-21 06:20:00,
2013-12-20 22:25:00,50.2,30.2,30.01,SSE,166,0.0,1.0,46,0.00,,,0.00,Wunderground v.1.15,2013-12-21 06:25:00,
2013-12-20 22:35:00,49.9,29.9,30.00,SSE,166,0.0,0.0,46,0.00,,,0.00,Wunderground v.1.15,2013-12-21 06:35:00,
2013-12-20 22:40:00,49.9,30.5,30.01,SSE,166,0.0,0.0,47,0.00,,,0.00,Wunderground v.1.15,2013-12-21 06:40:00,
2013-12-20 22:45:00,50.0,30.5,30.01,SSE,166,0.0,0.0,47,0.00,,,0.00,Wunderground v.1.15,2013-12-21 06:45:00,
2013-12-20 22:50:00,50.0,30.5,30.01,SSE,167,0.0,1.0,47,0.00,,,0.00,Wunderground v.1.15,2013-12-21 06:50:00,
2013-12-20 23:00:00,49.8,30.4,30.01,SSE,167,0.0,1.0,47,0.00,,,0.00,Wunderground v.1.15,2013-12-21 07:00:00,
2013-12-20 23:05:00,49.6,30.2,30.00,SSE,167,0.0,1.0,47,0.00,,,0.00,Wunderground v.1.15,2013-12-21 07:05:00,
2013-12-20 23:10:00,49.4,30.5,30.01,SSE,167,0.0,0.0,48,0.00,,,0.00,Wunderground v.1.15,2013-12-21 07:10:00,
2013-12-20 23:20:00,48.7,30.4,30.01,SSE,167,0.0,0.0,49,0.00,,,0.00,Wunderground v.1.15,2013-12-21 07:20:00,
2013-12-20 23:25:00,48.2,30.4,30.01,SSE,167,0.0,0.0,50,0.00,,,0.00,Wunderground v.1.15,2013-12-21 07:25:00,
2013-12-20 23:30:00,48.1,30.3,30.01,SSE,167,0.0,1.0,50,0.00,,,0.00,Wunderground v.1.15,2013-12-21 07:30:00,
2013-12-20 23:40:00,48.3,30.0,30.00,South,169,0.0,1.0,49,0.00,,,0.00,Wunderground v.1.15,2013-12-21 07:40:00,
2013-12-20 23:45:00,48.5,30.2,30.00,South,169,0.0,1.0,49,0.00,,,0.00,Wunderground v.1.15,2013-12-21 07:45:00,
2013-12-20 23:50:00,48.3,30.5,30.00,South,169,0.0,0.0,50,0.00,,,0.00,Wunderground v.1.15,2013-12-21 07:50:00,
2013-12-20 23:55:00,47.8,30.5,30.00,South,169,0.0,1.0,51,0.00,,,0.00,Wunderground v.1.15,2013-12-21 07:55:00,